Terminal Aerodrome Forecast
Issued by NWS

Home | Current Version | Previous Version | Text Only | Print | Product List | Glossary On
Versions: 1 2 3 4 5 6 7 8 9 10 11 12 13 14 15 16 17 18
000
FTUS45 KTFX 261120
TAFLWT
TAF
KLWT 261120Z 2612/2712 VRB05KT P6SM SCT050 BKN100
     FM261700 VRB06KT P6SM VCSH SCT025 OVC050
      TEMPO 2621/2701 VRB15G35KT 5SM TSRA BKN020CB OVC040
     FM270200 11006KT P6SM VCSH SCT015 OVC040=

USA.gov is the U.S. government's official web portal to all federal, state and local government web resources and services.